sensor_id;sensor_type;location;lat;lon;timestamp;P1;durP1;ratioP1;P2;durP2;ratioP2
60582;SDS011;46415;47.536;19.066;2022-11-11T00:02:41;7.57;;;4.68;;
60582;SDS011;46415;47.536;19.066;2022-11-11T00:06:02;13.45;;;5.65;;
60582;SDS011;46415;47.536;19.066;2022-11-11T00:09:25;9.68;;;6.10;;
60582;SDS011;46415;47.536;19.066;2022-11-11T00:12:46;11.30;;;6.00;;
60582;SDS011;46415;47.536;19.066;2022-11-11T00:16:11;8.85;;;6.62;;
60582;SDS011;46415;47.536;19.066;2022-11-11T00:19:34;13.05;;;6.50;;
60582;SDS011;46415;47.536;19.066;2022-11-11T00:23:19;11.60;;;6.20;;
60582;SDS011;46415;47.536;19.066;2022-11-11T00:27:02;11.38;;;6.75;;
60582;SDS011;46415;47.536;19.066;2022-11-11T00:30:25;10.35;;;6.68;;
60582;SDS011;46415;47.536;19.066;2022-11-11T00:33:45;10.32;;;7.03;;
60582;SDS011;46415;47.536;19.066;2022-11-11T00:37:06;9.07;;;6.03;;
60582;SDS011;46415;47.536;19.066;2022-11-11T00:40:28;13.80;;;5.28;;
60582;SDS011;46415;47.536;19.066;2022-11-11T00:43:49;12.45;;;6.72;;
60582;SDS011;46415;47.536;19.066;2022-11-11T00:47:10;12.30;;;6.55;;
60582;SDS011;46415;47.536;19.066;2022-11-11T00:50:49;13.32;;;7.30;;
60582;SDS011;46415;47.536;19.066;2022-11-11T00:54:20;11.27;;;7.43;;
60582;SDS011;46415;47.536;19.066;2022-11-11T00:57:41;10.95;;;7.25;;
60582;SDS011;46415;47.536;19.066;2022-11-11T01:01:02;12.73;;;7.18;;
60582;SDS011;46415;47.536;19.066;2022-11-11T01:04:23;10.90;;;6.43;;
60582;SDS011;46415;47.536;19.066;2022-11-11T01:07:44;9.30;;;6.55;;
60582;SDS011;46415;47.536;19.066;2022-11-11T01:11:12;10.77;;;6.45;;
60582;SDS011;46415;47.536;19.066;2022-11-11T01:14:35;11.05;;;6.80;;
60582;SDS011;46415;47.536;19.066;2022-11-11T01:17:56;13.38;;;6.55;;
60582;SDS011;46415;47.536;19.066;2022-11-11T01:21:23;12.98;;;5.95;;
60582;SDS011;46415;47.536;19.066;2022-11-11T01:24:45;12.98;;;6.55;;
60582;SDS011;46415;47.536;19.066;2022-11-11T01:28:07;11.50;;;6.62;;
60582;SDS011;46415;47.536;19.066;2022-11-11T01:31:29;11.32;;;7.10;;
60582;SDS011;46415;47.536;19.066;2022-11-11T01:34:50;12.75;;;7.20;;
60582;SDS011;46415;47.536;19.066;2022-11-11T01:38:11;11.85;;;7.45;;
60582;SDS011;46415;47.536;19.066;2022-11-11T01:41:33;14.07;;;8.05;;
60582;SDS011;46415;47.536;19.066;2022-11-11T01:44:58;10.63;;;6.65;;
60582;SDS011;46415;47.536;19.066;2022-11-11T01:55:47;10.90;;;6.53;;
60582;SDS011;46415;47.536;19.066;2022-11-11T01:59:10;11.82;;;6.47;;
60582;SDS011;46415;47.536;19.066;2022-11-11T02:02:44;10.18;;;5.75;;
60582;SDS011;46415;47.536;19.066;2022-11-11T02:06:15;14.50;;;7.28;;
60582;SDS011;46415;47.536;19.066;2022-11-11T02:09:38;12.52;;;6.55;;
60582;SDS011;46415;47.536;19.066;2022-11-11T02:13:01;13.85;;;7.85;;
60582;SDS011;46415;47.536;19.066;2022-11-11T02:16:41;14.25;;;7.10;;
60582;SDS011;46415;47.536;19.066;2022-11-11T02:20:02;14.82;;;5.87;;
60582;SDS011;46415;47.536;19.066;2022-11-11T02:23:29;15.52;;;6.82;;
60582;SDS011;46415;47.536;19.066;2022-11-11T02:27:13;15.35;;;7.03;;
60582;SDS011;46415;47.536;19.066;2022-11-11T02:30:37;13.85;;;7.30;;
60582;SDS011;46415;47.536;19.066;2022-11-11T02:33:59;11.20;;;7.10;;
60582;SDS011;46415;47.536;19.066;2022-11-11T02:37:23;12.02;;;6.60;;
60582;SDS011;46415;47.536;19.066;2022-11-11T02:40:45;10.88;;;6.78;;
60582;SDS011;46415;47.536;19.066;2022-11-11T02:44:25;10.88;;;5.97;;
60582;SDS011;46415;47.536;19.066;2022-11-11T02:47:47;11.90;;;6.75;;
60582;SDS011;46415;47.536;19.066;2022-11-11T02:51:08;12.32;;;6.70;;
60582;SDS011;46415;47.536;19.066;2022-11-11T02:54:29;17.30;;;7.18;;
60582;SDS011;46415;47.536;19.066;2022-11-11T02:57:51;10.18;;;6.03;;
60582;SDS011;46415;47.536;19.066;2022-11-11T03:01:12;11.43;;;6.90;;
60582;SDS011;46415;47.536;19.066;2022-11-11T03:04:35;17.98;;;8.18;;
60582;SDS011;46415;47.536;19.066;2022-11-11T03:07:58;12.75;;;7.30;;
60582;SDS011;46415;47.536;19.066;2022-11-11T03:11:19;12.15;;;7.37;;
60582;SDS011;46415;47.536;19.066;2022-11-11T03:18:08;12.85;;;6.75;;
60582;SDS011;46415;47.536;19.066;2022-11-11T03:21:29;9.13;;;6.40;;
60582;SDS011;46415;47.536;19.066;2022-11-11T03:25:11;16.05;;;8.85;;
60582;SDS011;46415;47.536;19.066;2022-11-11T03:28:50;18.87;;;8.63;;
60582;SDS011;46415;47.536;19.066;2022-11-11T03:32:11;16.90;;;9.05;;
60582;SDS011;46415;47.536;19.066;2022-11-11T03:35:32;16.80;;;8.00;;
60582;SDS011;46415;47.536;19.066;2022-11-11T03:38:54;10.45;;;8.48;;
60582;SDS011;46415;47.536;19.066;2022-11-11T03:42:14;11.93;;;6.70;;
60582;SDS011;46415;47.536;19.066;2022-11-11T03:45:35;15.77;;;8.15;;
60582;SDS011;46415;47.536;19.066;2022-11-11T03:48:56;12.48;;;6.93;;
60582;SDS011;46415;47.536;19.066;2022-11-11T03:52:17;11.35;;;7.28;;
60582;SDS011;46415;47.536;19.066;2022-11-11T03:55:38;16.40;;;7.60;;
60582;SDS011;46415;47.536;19.066;2022-11-11T03:58:59;14.23;;;6.87;;
60582;SDS011;46415;47.536;19.066;2022-11-11T04:02:20;22.73;;;7.32;;
60582;SDS011;46415;47.536;19.066;2022-11-11T04:06:00;14.85;;;7.87;;
60582;SDS011;46415;47.536;19.066;2022-11-11T04:09:40;11.90;;;6.78;;
60582;SDS011;46415;47.536;19.066;2022-11-11T04:13:20;14.57;;;6.60;;
60582;SDS011;46415;47.536;19.066;2022-11-11T04:17:00;10.10;;;7.10;;
60582;SDS011;46415;47.536;19.066;2022-11-11T04:20:20;14.45;;;6.75;;
60582;SDS011;46415;47.536;19.066;2022-11-11T04:24:00;10.40;;;6.32;;
60582;SDS011;46415;47.536;19.066;2022-11-11T04:27:21;15.23;;;7.47;;
60582;SDS011;46415;47.536;19.066;2022-11-11T04:30:42;16.50;;;7.57;;
60582;SDS011;46415;47.536;19.066;2022-11-11T04:34:03;13.27;;;6.90;;
60582;SDS011;46415;47.536;19.066;2022-11-11T04:37:25;10.05;;;7.22;;
60582;SDS011;46415;47.536;19.066;2022-11-11T04:40:47;17.45;;;9.25;;
60582;SDS011;46415;47.536;19.066;2022-11-11T04:44:22;12.15;;;7.97;;
60582;SDS011;46415;47.536;19.066;2022-11-11T04:48:22;9.93;;;6.55;;
60582;SDS011;46415;47.536;19.066;2022-11-11T04:51:43;9.90;;;6.62;;
60582;SDS011;46415;47.536;19.066;2022-11-11T04:55:22;11.23;;;7.22;;
60582;SDS011;46415;47.536;19.066;2022-11-11T04:59:03;11.85;;;6.93;;
60582;SDS011;46415;47.536;19.066;2022-11-11T05:02:36;16.48;;;7.78;;
60582;SDS011;46415;47.536;19.066;2022-11-11T05:06:16;11.52;;;6.47;;
60582;SDS011;46415;47.536;19.066;2022-11-11T05:09:55;12.90;;;7.43;;
60582;SDS011;46415;47.536;19.066;2022-11-11T05:13:16;11.05;;;7.05;;
60582;SDS011;46415;47.536;19.066;2022-11-11T05:16:56;13.18;;;8.02;;
60582;SDS011;46415;47.536;19.066;2022-11-11T05:20:37;10.38;;;6.82;;
60582;SDS011;46415;47.536;19.066;2022-11-11T05:24:16;14.77;;;7.32;;
60582;SDS011;46415;47.536;19.066;2022-11-11T05:27:56;12.88;;;8.13;;
60582;SDS011;46415;47.536;19.066;2022-11-11T05:31:17;14.48;;;6.57;;
60582;SDS011;46415;47.536;19.066;2022-11-11T05:34:38;11.05;;;7.03;;
60582;SDS011;46415;47.536;19.066;2022-11-11T05:38:02;9.63;;;6.45;;
60582;SDS011;46415;47.536;19.066;2022-11-11T05:41:41;13.10;;;7.47;;
60582;SDS011;46415;47.536;19.066;2022-11-11T05:45:02;10.38;;;6.18;;
60582;SDS011;46415;47.536;19.066;2022-11-11T05:48:23;12.37;;;6.87;;
60582;SDS011;46415;47.536;19.066;2022-11-11T05:51:44;10.95;;;7.60;;
60582;SDS011;46415;47.536;19.066;2022-11-11T05:55:06;11.85;;;7.10;;
60582;SDS011;46415;47.536;19.066;2022-11-11T05:58:27;9.85;;;6.72;;
60582;SDS011;46415;47.536;19.066;2022-11-11T06:01:49;14.13;;;6.72;;
60582;SDS011;46415;47.536;19.066;2022-11-11T06:05:10;11.02;;;6.65;;
60582;SDS011;46415;47.536;19.066;2022-11-11T06:08:31;13.62;;;7.20;;
60582;SDS011;46415;47.536;19.066;2022-11-11T06:11:53;13.00;;;7.55;;
60582;SDS011;46415;47.536;19.066;2022-11-11T06:15:13;13.62;;;7.90;;
60582;SDS011;46415;47.536;19.066;2022-11-11T06:18:34;13.88;;;7.28;;
60582;SDS011;46415;47.536;19.066;2022-11-11T06:21:55;15.68;;;7.85;;
60582;SDS011;46415;47.536;19.066;2022-11-11T06:25:16;13.10;;;6.87;;
60582;SDS011;46415;47.536;19.066;2022-11-11T06:28:56;9.82;;;6.30;;
60582;SDS011;46415;47.536;19.066;2022-11-11T06:32:17;9.98;;;6.25;;
60582;SDS011;46415;47.536;19.066;2022-11-11T06:35:38;9.77;;;7.05;;
60582;SDS011;46415;47.536;19.066;2022-11-11T06:39:03;10.70;;;6.70;;
60582;SDS011;46415;47.536;19.066;2022-11-11T06:42:24;12.75;;;6.80;;
60582;SDS011;46415;47.536;19.066;2022-11-11T06:45:44;13.45;;;8.02;;
60582;SDS011;46415;47.536;19.066;2022-11-11T06:49:05;7.93;;;6.45;;
60582;SDS011;46415;47.536;19.066;2022-11-11T06:52:26;16.37;;;7.28;;
60582;SDS011;46415;47.536;19.066;2022-11-11T06:55:50;15.40;;;8.90;;
60582;SDS011;46415;47.536;19.066;2022-11-11T06:59:12;11.52;;;8.20;;
60582;SDS011;46415;47.536;19.066;2022-11-11T07:02:33;14.25;;;7.82;;
60582;SDS011;46415;47.536;19.066;2022-11-11T07:05:53;12.43;;;7.18;;
60582;SDS011;46415;47.536;19.066;2022-11-11T07:09:19;14.60;;;8.50;;
60582;SDS011;46415;47.536;19.066;2022-11-11T07:12:40;18.52;;;8.75;;
60582;SDS011;46415;47.536;19.066;2022-11-11T07:16:02;14.87;;;8.18;;
60582;SDS011;46415;47.536;19.066;2022-11-11T07:19:22;14.98;;;9.00;;
60582;SDS011;46415;47.536;19.066;2022-11-11T07:22:44;12.90;;;6.87;;
60582;SDS011;46415;47.536;19.066;2022-11-11T07:26:05;13.48;;;8.27;;
60582;SDS011;46415;47.536;19.066;2022-11-11T07:29:26;17.48;;;9.15;;
60582;SDS011;46415;47.536;19.066;2022-11-11T07:32:49;17.87;;;8.63;;
60582;SDS011;46415;47.536;19.066;2022-11-11T07:36:11;14.93;;;8.30;;
60582;SDS011;46415;47.536;19.066;2022-11-11T07:39:32;21.42;;;9.13;;
60582;SDS011;46415;47.536;19.066;2022-11-11T07:42:53;14.65;;;7.82;;
60582;SDS011;46415;47.536;19.066;2022-11-11T07:46:14;13.38;;;7.93;;
60582;SDS011;46415;47.536;19.066;2022-11-11T07:49:35;14.38;;;9.27;;
60582;SDS011;46415;47.536;19.066;2022-11-11T07:52:56;16.75;;;8.90;;
60582;SDS011;46415;47.536;19.066;2022-11-11T07:56:17;13.75;;;8.23;;
60582;SDS011;46415;47.536;19.066;2022-11-11T07:59:38;13.55;;;8.52;;
60582;SDS011;46415;47.536;19.066;2022-11-11T08:03:00;18.25;;;8.93;;
60582;SDS011;46415;47.536;19.066;2022-11-11T08:06:28;16.58;;;9.85;;
60582;SDS011;46415;47.536;19.066;2022-11-11T08:09:50;12.25;;;8.63;;
60582;SDS011;46415;47.536;19.066;2022-11-11T08:13:11;16.00;;;9.57;;
60582;SDS011;46415;47.536;19.066;2022-11-11T08:16:51;17.60;;;8.00;;
60582;SDS011;46415;47.536;19.066;2022-11-11T08:20:12;13.68;;;8.80;;
60582;SDS011;46415;47.536;19.066;2022-11-11T08:23:33;17.37;;;8.80;;
60582;SDS011;46415;47.536;19.066;2022-11-11T08:27:14;12.95;;;8.63;;
60582;SDS011;46415;47.536;19.066;2022-11-11T08:30:35;19.48;;;9.73;;
60582;SDS011;46415;47.536;19.066;2022-11-11T08:33:56;15.23;;;9.48;;
60582;SDS011;46415;47.536;19.066;2022-11-11T08:37:16;18.92;;;10.35;;
60582;SDS011;46415;47.536;19.066;2022-11-11T08:40:39;15.68;;;10.23;;
60582;SDS011;46415;47.536;19.066;2022-11-11T08:44:01;18.20;;;10.60;;
60582;SDS011;46415;47.536;19.066;2022-11-11T08:47:21;23.00;;;9.73;;
60582;SDS011;46415;47.536;19.066;2022-11-11T08:50:45;15.15;;;9.93;;
60582;SDS011;46415;47.536;19.066;2022-11-11T08:54:06;20.58;;;13.65;;
60582;SDS011;46415;47.536;19.066;2022-11-11T08:57:30;14.73;;;8.82;;
60582;SDS011;46415;47.536;19.066;2022-11-11T09:00:51;18.45;;;13.02;;
60582;SDS011;46415;47.536;19.066;2022-11-11T09:04:12;17.05;;;12.30;;
60582;SDS011;46415;47.536;19.066;2022-11-11T09:07:53;21.08;;;13.65;;
60582;SDS011;46415;47.536;19.066;2022-11-11T09:11:14;16.50;;;10.43;;
60582;SDS011;46415;47.536;19.066;2022-11-11T09:14:35;21.50;;;13.32;;
60582;SDS011;46415;47.536;19.066;2022-11-11T09:17:56;18.83;;;11.05;;
60582;SDS011;46415;47.536;19.066;2022-11-11T09:21:16;23.73;;;9.90;;
60582;SDS011;46415;47.536;19.066;2022-11-11T09:24:37;17.37;;;10.10;;
60582;SDS011;46415;47.536;19.066;2022-11-11T09:27:59;19.95;;;13.27;;
60582;SDS011;46415;47.536;19.066;2022-11-11T09:31:21;20.02;;;13.75;;
60582;SDS011;46415;47.536;19.066;2022-11-11T09:35:03;19.83;;;12.40;;
60582;SDS011;46415;47.536;19.066;2022-11-11T09:38:25;17.37;;;10.45;;
60582;SDS011;46415;47.536;19.066;2022-11-11T09:41:53;19.17;;;12.20;;
60582;SDS011;46415;47.536;19.066;2022-11-11T09:45:40;16.80;;;9.88;;
60582;SDS011;46415;47.536;19.066;2022-11-11T09:53:32;21.10;;;10.07;;
60582;SDS011;46415;47.536;19.066;2022-11-11T09:56:59;22.40;;;15.13;;
60582;SDS011;46415;47.536;19.066;2022-11-11T10:00:27;22.25;;;15.75;;
60582;SDS011;46415;47.536;19.066;2022-11-11T10:03:56;23.40;;;16.42;;
60582;SDS011;46415;47.536;19.066;2022-11-11T10:07:23;22.60;;;16.05;;
60582;SDS011;46415;47.536;19.066;2022-11-11T10:10:51;24.55;;;16.23;;
60582;SDS011;46415;47.536;19.066;2022-11-11T10:14:14;24.05;;;17.85;;
60582;SDS011;46415;47.536;19.066;2022-11-11T10:17:49;25.88;;;17.75;;
60582;SDS011;46415;47.536;19.066;2022-11-11T10:21:52;28.85;;;19.15;;
60582;SDS011;46415;47.536;19.066;2022-11-11T10:25:36;25.15;;;18.05;;
60582;SDS011;46415;47.536;19.066;2022-11-11T10:29:06;26.48;;;17.40;;
60582;SDS011;46415;47.536;19.066;2022-11-11T10:32:34;25.08;;;17.77;;
60582;SDS011;46415;47.536;19.066;2022-11-11T10:35:56;28.42;;;18.67;;
60582;SDS011;46415;47.536;19.066;2022-11-11T10:39:26;26.70;;;18.85;;
60582;SDS011;46415;47.536;19.066;2022-11-11T10:43:06;23.50;;;16.33;;
60582;SDS011;46415;47.536;19.066;2022-11-11T10:46:42;27.10;;;19.27;;
60582;SDS011;46415;47.536;19.066;2022-11-11T10:57:32;28.30;;;19.52;;
60582;SDS011;46415;47.536;19.066;2022-11-11T11:01:03;29.00;;;18.90;;
60582;SDS011;46415;47.536;19.066;2022-11-11T11:04:30;23.73;;;17.17;;
60582;SDS011;46415;47.536;19.066;2022-11-11T11:07:59;23.42;;;16.25;;
60582;SDS011;46415;47.536;19.066;2022-11-11T11:11:36;26.25;;;15.73;;
60582;SDS011;46415;47.536;19.066;2022-11-11T11:15:03;21.20;;;14.85;;
60582;SDS011;46415;47.536;19.066;2022-11-11T11:18:29;19.12;;;14.00;;
60582;SDS011;46415;47.536;19.066;2022-11-11T11:25:12;19.02;;;13.18;;
60582;SDS011;46415;47.536;19.066;2022-11-11T11:28:33;17.65;;;12.80;;
60582;SDS011;46415;47.536;19.066;2022-11-11T11:31:54;15.02;;;10.23;;
60582;SDS011;46415;47.536;19.066;2022-11-11T11:38:57;7.90;;;6.15;;
60582;SDS011;46415;47.536;19.066;2022-11-11T11:42:30;8.82;;;5.60;;
60582;SDS011;46415;47.536;19.066;2022-11-11T11:45:56;5.70;;;4.72;;
60582;SDS011;46415;47.536;19.066;2022-11-11T11:56:57;6.50;;;4.70;;
60582;SDS011;46415;47.536;19.066;2022-11-11T12:00:24;8.07;;;4.93;;
60582;SDS011;46415;47.536;19.066;2022-11-11T12:07:36;8.65;;;5.97;;
60582;SDS011;46415;47.536;19.066;2022-11-11T12:22:06;8.15;;;5.68;;
60582;SDS011;46415;47.536;19.066;2022-11-11T12:29:40;7.25;;;4.65;;
60582;SDS011;46415;47.536;19.066;2022-11-11T12:33:32;6.87;;;4.45;;
60582;SDS011;46415;47.536;19.066;2022-11-11T12:37:14;5.53;;;3.72;;
60582;SDS011;46415;47.536;19.066;2022-11-11T12:44:21;6.55;;;3.95;;
60582;SDS011;46415;47.536;19.066;2022-11-11T12:51:54;5.87;;;4.05;;
60582;SDS011;46415;47.536;19.066;2022-11-11T12:55:26;5.87;;;3.65;;
60582;SDS011;46415;47.536;19.066;2022-11-11T12:59:11;7.60;;;4.85;;
60582;SDS011;46415;47.536;19.066;2022-11-11T13:06:53;5.17;;;3.70;;
60582;SDS011;46415;47.536;19.066;2022-11-11T13:17:58;5.70;;;4.00;;
60582;SDS011;46415;47.536;19.066;2022-11-11T13:21:22;3.80;;;3.45;;
60582;SDS011;46415;47.536;19.066;2022-11-11T13:24:50;5.45;;;3.97;;
60582;SDS011;46415;47.536;19.066;2022-11-11T13:31:48;7.43;;;5.12;;
60582;SDS011;46415;47.536;19.066;2022-11-11T13:35:23;7.18;;;5.07;;
60582;SDS011;46415;47.536;19.066;2022-11-11T13:38:53;7.15;;;4.62;;
60582;SDS011;46415;47.536;19.066;2022-11-11T13:42:21;7.62;;;5.03;;
60582;SDS011;46415;47.536;19.066;2022-11-11T13:45:49;10.30;;;6.40;;
60582;SDS011;46415;47.536;19.066;2022-11-11T13:52:53;8.75;;;6.35;;
60582;SDS011;46415;47.536;19.066;2022-11-11T13:59:53;6.15;;;4.53;;
60582;SDS011;46415;47.536;19.066;2022-11-11T14:10:07;9.85;;;6.80;;
60582;SDS011;46415;47.536;19.066;2022-11-11T14:23:57;10.05;;;4.43;;
60582;SDS011;46415;47.536;19.066;2022-11-11T14:27:21;10.43;;;6.47;;
60582;SDS011;46415;47.536;19.066;2022-11-11T14:30:48;9.13;;;5.90;;
60582;SDS011;46415;47.536;19.066;2022-11-11T14:38:40;5.85;;;3.87;;
60582;SDS011;46415;47.536;19.066;2022-11-11T14:42:02;7.80;;;4.70;;
60582;SDS011;46415;47.536;19.066;2022-11-11T14:48:55;8.13;;;5.95;;
60582;SDS011;46415;47.536;19.066;2022-11-11T14:52:22;5.28;;;4.37;;
60582;SDS011;46415;47.536;19.066;2022-11-11T14:55:50;10.23;;;5.43;;
60582;SDS011;46415;47.536;19.066;2022-11-11T14:59:14;12.98;;;6.62;;
60582;SDS011;46415;47.536;19.066;2022-11-11T15:02:51;12.52;;;8.30;;
60582;SDS011;46415;47.536;19.066;2022-11-11T15:21:24;13.20;;;8.30;;
60582;SDS011;46415;47.536;19.066;2022-11-11T15:35:50;10.52;;;8.15;;
60582;SDS011;46415;47.536;19.066;2022-11-11T15:39:17;16.37;;;8.07;;
60582;SDS011;46415;47.536;19.066;2022-11-11T15:42:39;14.77;;;7.47;;
60582;SDS011;46415;47.536;19.066;2022-11-11T15:46:07;13.30;;;7.75;;
60582;SDS011;46415;47.536;19.066;2022-11-11T15:49:46;12.18;;;7.87;;
60582;SDS011;46415;47.536;19.066;2022-11-11T15:53:09;13.52;;;7.90;;
60582;SDS011;46415;47.536;19.066;2022-11-11T15:56:32;8.35;;;6.95;;
60582;SDS011;46415;47.536;19.066;2022-11-11T15:59:54;15.25;;;8.52;;
60582;SDS011;46415;47.536;19.066;2022-11-11T16:03:17;9.98;;;7.57;;
60582;SDS011;46415;47.536;19.066;2022-11-11T16:06:41;13.90;;;8.15;;
60582;SDS011;46415;47.536;19.066;2022-11-11T16:10:11;12.80;;;7.50;;
60582;SDS011;46415;47.536;19.066;2022-11-11T16:13:37;9.15;;;7.20;;
60582;SDS011;46415;47.536;19.066;2022-11-11T16:17:29;11.55;;;7.15;;
60582;SDS011;46415;47.536;19.066;2022-11-11T16:21:12;13.55;;;7.95;;
60582;SDS011;46415;47.536;19.066;2022-11-11T16:24:39;15.07;;;8.13;;
60582;SDS011;46415;47.536;19.066;2022-11-11T16:28:03;14.52;;;7.68;;
60582;SDS011;46415;47.536;19.066;2022-11-11T16:35:19;11.75;;;7.03;;
60582;SDS011;46415;47.536;19.066;2022-11-11T16:39:11;11.82;;;8.10;;
60582;SDS011;46415;47.536;19.066;2022-11-11T16:42:40;11.75;;;7.68;;
60582;SDS011;46415;47.536;19.066;2022-11-11T16:46:04;13.20;;;6.95;;
60582;SDS011;46415;47.536;19.066;2022-11-11T16:49:36;11.38;;;7.32;;
60582;SDS011;46415;47.536;19.066;2022-11-11T16:53:03;14.13;;;7.60;;
60582;SDS011;46415;47.536;19.066;2022-11-11T16:56:26;15.60;;;7.87;;
60582;SDS011;46415;47.536;19.066;2022-11-11T16:59:51;10.07;;;7.35;;
60582;SDS011;46415;47.536;19.066;2022-11-11T17:03:20;9.90;;;7.70;;
60582;SDS011;46415;47.536;19.066;2022-11-11T17:06:55;14.25;;;8.13;;
60582;SDS011;46415;47.536;19.066;2022-11-11T17:10:20;16.92;;;7.57;;
60582;SDS011;46415;47.536;19.066;2022-11-11T17:13:44;10.63;;;8.43;;
60582;SDS011;46415;47.536;19.066;2022-11-11T17:17:06;14.80;;;8.30;;
60582;SDS011;46415;47.536;19.066;2022-11-11T17:20:30;10.98;;;7.37;;
60582;SDS011;46415;47.536;19.066;2022-11-11T17:23:51;12.75;;;8.05;;
60582;SDS011;46415;47.536;19.066;2022-11-11T17:27:12;14.73;;;8.32;;
60582;SDS011;46415;47.536;19.066;2022-11-11T17:30:37;12.48;;;7.72;;
60582;SDS011;46415;47.536;19.066;2022-11-11T17:33:58;11.65;;;7.28;;
60582;SDS011;46415;47.536;19.066;2022-11-11T17:37:19;13.52;;;7.68;;
60582;SDS011;46415;47.536;19.066;2022-11-11T17:40:43;10.40;;;7.45;;
60582;SDS011;46415;47.536;19.066;2022-11-11T17:44:05;11.48;;;6.80;;
60582;SDS011;46415;47.536;19.066;2022-11-11T17:47:26;13.18;;;8.88;;
60582;SDS011;46415;47.536;19.066;2022-11-11T17:50:47;17.05;;;8.90;;
60582;SDS011;46415;47.536;19.066;2022-11-11T17:54:09;9.95;;;6.87;;
60582;SDS011;46415;47.536;19.066;2022-11-11T17:57:30;16.02;;;8.23;;
60582;SDS011;46415;47.536;19.066;2022-11-11T18:00:51;13.05;;;7.15;;
60582;SDS011;46415;47.536;19.066;2022-11-11T18:04:14;17.83;;;8.57;;
60582;SDS011;46415;47.536;19.066;2022-11-11T18:07:35;15.90;;;8.65;;
60582;SDS011;46415;47.536;19.066;2022-11-11T18:11:02;10.23;;;7.35;;
60582;SDS011;46415;47.536;19.066;2022-11-11T18:14:25;16.05;;;7.78;;
60582;SDS011;46415;47.536;19.066;2022-11-11T18:17:46;13.02;;;8.13;;
60582;SDS011;46415;47.536;19.066;2022-11-11T18:21:07;12.05;;;8.25;;
60582;SDS011;46415;47.536;19.066;2022-11-11T18:24:28;10.20;;;7.25;;
60582;SDS011;46415;47.536;19.066;2022-11-11T18:27:51;12.30;;;7.35;;
60582;SDS011;46415;47.536;19.066;2022-11-11T18:31:13;10.82;;;7.95;;
60582;SDS011;46415;47.536;19.066;2022-11-11T18:34:35;12.35;;;8.48;;
60582;SDS011;46415;47.536;19.066;2022-11-11T18:37:56;12.25;;;8.43;;
60582;SDS011;46415;47.536;19.066;2022-11-11T18:41:18;13.90;;;8.68;;
60582;SDS011;46415;47.536;19.066;2022-11-11T18:44:40;13.48;;;7.90;;
60582;SDS011;46415;47.536;19.066;2022-11-11T18:48:01;11.48;;;8.38;;
60582;SDS011;46415;47.536;19.066;2022-11-11T18:51:22;11.88;;;7.65;;
60582;SDS011;46415;47.536;19.066;2022-11-11T18:54:43;15.73;;;9.05;;
60582;SDS011;46415;47.536;19.066;2022-11-11T18:58:04;9.88;;;6.60;;
60582;SDS011;46415;47.536;19.066;2022-11-11T19:01:27;12.90;;;6.82;;
60582;SDS011;46415;47.536;19.066;2022-11-11T19:04:50;12.27;;;9.50;;
60582;SDS011;46415;47.536;19.066;2022-11-11T19:08:11;12.15;;;8.20;;
60582;SDS011;46415;47.536;19.066;2022-11-11T19:11:34;10.90;;;7.47;;
60582;SDS011;46415;47.536;19.066;2022-11-11T19:14:57;15.32;;;8.48;;
60582;SDS011;46415;47.536;19.066;2022-11-11T19:18:18;9.90;;;7.03;;
60582;SDS011;46415;47.536;19.066;2022-11-11T19:21:39;13.68;;;7.95;;
60582;SDS011;46415;47.536;19.066;2022-11-11T19:25:00;12.52;;;7.75;;
60582;SDS011;46415;47.536;19.066;2022-11-11T19:28:26;11.98;;;7.57;;
60582;SDS011;46415;47.536;19.066;2022-11-11T19:31:47;11.68;;;8.40;;
60582;SDS011;46415;47.536;19.066;2022-11-11T19:35:09;10.77;;;6.87;;
60582;SDS011;46415;47.536;19.066;2022-11-11T19:38:30;11.93;;;8.10;;
60582;SDS011;46415;47.536;19.066;2022-11-11T19:41:52;11.20;;;7.10;;
60582;SDS011;46415;47.536;19.066;2022-11-11T19:45:14;10.40;;;6.72;;
60582;SDS011;46415;47.536;19.066;2022-11-11T19:48:35;6.68;;;5.62;;
60582;SDS011;46415;47.536;19.066;2022-11-11T19:51:56;7.50;;;5.85;;
60582;SDS011;46415;47.536;19.066;2022-11-11T19:55:17;10.32;;;6.62;;
60582;SDS011;46415;47.536;19.066;2022-11-11T19:58:38;12.07;;;6.70;;
60582;SDS011;46415;47.536;19.066;2022-11-11T20:02:00;9.13;;;6.32;;
60582;SDS011;46415;47.536;19.066;2022-11-11T20:05:21;10.68;;;7.00;;
60582;SDS011;46415;47.536;19.066;2022-11-11T20:08:43;11.27;;;6.78;;
60582;SDS011;46415;47.536;19.066;2022-11-11T20:12:04;12.35;;;7.53;;
60582;SDS011;46415;47.536;19.066;2022-11-11T20:15:25;10.63;;;6.87;;
60582;SDS011;46415;47.536;19.066;2022-11-11T20:18:47;11.88;;;6.15;;
60582;SDS011;46415;47.536;19.066;2022-11-11T20:22:07;7.85;;;6.82;;
60582;SDS011;46415;47.536;19.066;2022-11-11T20:25:30;7.68;;;5.25;;
60582;SDS011;46415;47.536;19.066;2022-11-11T20:28:55;10.70;;;5.57;;
60582;SDS011;46415;47.536;19.066;2022-11-11T20:32:17;6.70;;;4.75;;
60582;SDS011;46415;47.536;19.066;2022-11-11T20:35:39;8.88;;;6.53;;
60582;SDS011;46415;47.536;19.066;2022-11-11T20:39:01;10.02;;;5.70;;
60582;SDS011;46415;47.536;19.066;2022-11-11T20:42:22;9.40;;;5.53;;
60582;SDS011;46415;47.536;19.066;2022-11-11T20:45:43;7.07;;;4.87;;
60582;SDS011;46415;47.536;19.066;2022-11-11T20:49:03;7.03;;;4.68;;
60582;SDS011;46415;47.536;19.066;2022-11-11T20:52:24;10.38;;;5.57;;
60582;SDS011;46415;47.536;19.066;2022-11-11T20:55:45;7.53;;;5.55;;
60582;SDS011;46415;47.536;19.066;2022-11-11T20:59:06;7.80;;;5.93;;
60582;SDS011;46415;47.536;19.066;2022-11-11T21:02:27;10.25;;;6.30;;
60582;SDS011;46415;47.536;19.066;2022-11-11T21:05:48;8.65;;;6.43;;
60582;SDS011;46415;47.536;19.066;2022-11-11T21:09:09;10.27;;;6.65;;
60582;SDS011;46415;47.536;19.066;2022-11-11T21:12:31;9.30;;;6.12;;
60582;SDS011;46415;47.536;19.066;2022-11-11T21:15:52;9.77;;;6.55;;
60582;SDS011;46415;47.536;19.066;2022-11-11T21:19:13;7.72;;;5.60;;
60582;SDS011;46415;47.536;19.066;2022-11-11T21:22:34;9.63;;;5.60;;
60582;SDS011;46415;47.536;19.066;2022-11-11T21:25:59;7.90;;;5.43;;
60582;SDS011;46415;47.536;19.066;2022-11-11T21:29:24;10.18;;;5.97;;
60582;SDS011;46415;47.536;19.066;2022-11-11T21:32:45;11.32;;;7.07;;
60582;SDS011;46415;47.536;19.066;2022-11-11T21:36:07;12.18;;;6.97;;
60582;SDS011;46415;47.536;19.066;2022-11-11T21:39:31;12.73;;;7.45;;
60582;SDS011;46415;47.536;19.066;2022-11-11T21:42:52;10.90;;;7.50;;
60582;SDS011;46415;47.536;19.066;2022-11-11T21:46:19;10.82;;;6.57;;
60582;SDS011;46415;47.536;19.066;2022-11-11T21:49:44;11.25;;;6.37;;
60582;SDS011;46415;47.536;19.066;2022-11-11T21:53:05;7.28;;;5.87;;
60582;SDS011;46415;47.536;19.066;2022-11-11T21:56:27;8.65;;;5.43;;
60582;SDS011;46415;47.536;19.066;2022-11-11T21:59:49;10.55;;;6.82;;
60582;SDS011;46415;47.536;19.066;2022-11-11T22:03:10;9.98;;;6.00;;
60582;SDS011;46415;47.536;19.066;2022-11-11T22:06:31;10.90;;;6.78;;
60582;SDS011;46415;47.536;19.066;2022-11-11T22:09:52;9.75;;;6.93;;
60582;SDS011;46415;47.536;19.066;2022-11-11T22:13:13;9.25;;;6.75;;
60582;SDS011;46415;47.536;19.066;2022-11-11T22:16:35;9.85;;;6.78;;
60582;SDS011;46415;47.536;19.066;2022-11-11T22:19:56;11.40;;;7.10;;
60582;SDS011;46415;47.536;19.066;2022-11-11T22:23:17;11.60;;;8.40;;
60582;SDS011;46415;47.536;19.066;2022-11-11T22:26:39;16.80;;;7.95;;